Hovedside
METAR-TAF:

METAR-TAF

Lufthavner :

Hans Christian Andersen Airport

Odense, Danmark

breddegrad: 55-29N, lengdegrad: 010-20E, høyde over havet: 17 m

Gjeldene værobservasjon

Denne rapporten ble laget for 4 timer og 44 minutter siden, klokken 15:50 UTC
Vind 5 kt fra Øst
Temperatur 2°C
Luftfuktighet 100%
Trykk 1010 hPa
Sikt: 8000 m

METAR: EKOD 141550Z 10005KT 8000 NSC 02/02 Q1010

Tid: 21:34 (20:34 UTC)

Varsel

Denne rapporten ble laget for 7 timer og 40 minutter siden, klokken 12:54 UTC
Varsel gyldig fra 14. klokken 12 UTC til 14. klokken 16 UTC
Vind 8 kt fra Sør-sørvest
Sikt 10 km eller mer
Spredte skyer i en høyde av 1000 ft
Midlertidig
fra 14. klokken 12 UTC til 14. klokken 14 UTC
Brutte skyer i en høyde av 1000 ft

TAF: EKOD 141254Z 1412/1416 20008KT 9999 SCT010 TEMPO 1412/1414 BKN010

Værobservasjoner og værvarsel for over 4000 flyplasser (METAR- og TAF-rapporter).

Tilgjengelige stasjoner er representert av de røde og gule prikkene på kartet.

Hold musepekeren over prikken for å se navnet på stasjonen.

Klikk så for å se værobservasjoner og -varsler.

For å forandre kartet kan du klikke på den grønne knappen med svart kryss for å zoome inn, på den grønne knappen med strek for å zoome ut, eller på de grønne pilene for å se tilstøtende kart.


METAR-TAF: